createdAt,value
2022-09-30T00:00:50.018Z,6.4
2022-09-30T00:02:51.163Z,6.4
2022-09-30T00:04:50.773Z,6.4
2022-09-30T00:06:50.093Z,6.4
2022-09-30T00:08:50.114Z,6.4
2022-09-30T00:10:50.930Z,6.4
2022-09-30T00:12:49.903Z,6.4
2022-09-30T00:14:50.763Z,6.4
2022-09-30T00:16:49.987Z,6.4
2022-09-30T00:18:50.784Z,6.3
2022-09-30T00:20:50.807Z,6.3
2022-09-30T00:22:50.712Z,6.3
2022-09-30T00:24:49.958Z,6.3
2022-09-30T00:26:50.026Z,6.2
2022-09-30T00:28:49.942Z,6.2
2022-09-30T00:30:50.824Z,6.2
2022-09-30T00:32:50.886Z,6.2
2022-09-30T00:34:50.166Z,6.1
2022-09-30T00:36:50.367Z,6.1
2022-09-30T00:38:50.274Z,6.0
2022-09-30T00:40:50.174Z,6.0
2022-09-30T00:42:50.008Z,6.0
2022-09-30T00:44:51.209Z,6.0
2022-09-30T00:46:50.776Z,5.9
2022-09-30T00:48:50.045Z,5.8
2022-09-30T00:50:50.005Z,5.8
2022-09-30T00:52:49.946Z,5.8
2022-09-30T00:54:49.931Z,5.8
2022-09-30T00:56:50.087Z,5.8
2022-09-30T00:58:50.876Z,5.7
2022-09-30T01:00:51.074Z,5.7
2022-09-30T01:02:50.051Z,5.7
2022-09-30T01:04:50.585Z,5.7
2022-09-30T01:06:50.032Z,5.6
2022-09-30T01:08:50.887Z,5.6
2022-09-30T01:10:50.805Z,5.6
2022-09-30T01:12:50.781Z,5.5
2022-09-30T01:14:50.664Z,5.5
2022-09-30T01:16:49.980Z,5.4
2022-09-30T01:18:50.740Z,5.4
2022-09-30T01:20:50.637Z,5.4
2022-09-30T01:22:50.452Z,5.4
2022-09-30T01:24:50.267Z,5.4
2022-09-30T01:26:50.597Z,5.3
2022-09-30T01:28:50.603Z,5.3
2022-09-30T01:30:50.792Z,5.3
2022-09-30T01:32:50.040Z,5.3
2022-09-30T01:34:50.212Z,5.3
2022-09-30T01:36:50.268Z,5.3
2022-09-30T01:38:50.135Z,5.3
2022-09-30T01:40:50.140Z,5.2
2022-09-30T01:42:50.092Z,5.2
2022-09-30T01:44:50.008Z,5.1
2022-09-30T01:46:50.413Z,5.1
2022-09-30T01:48:50.473Z,5.1
2022-09-30T01:50:50.427Z,5.1
2022-09-30T01:52:50.075Z,5.0
2022-09-30T01:54:49.938Z,5.0
2022-09-30T01:56:50.198Z,5.0
2022-09-30T01:58:50.223Z,5.0
2022-09-30T02:00:50.301Z,5.0
2022-09-30T02:02:50.361Z,4.9
2022-09-30T02:04:50.882Z,4.9
2022-09-30T02:06:50.135Z,4.9
2022-09-30T02:08:50.259Z,4.9
2022-09-30T02:10:50.353Z,4.8
2022-09-30T02:12:50.320Z,4.8
2022-09-30T02:14:50.515Z,4.8
2022-09-30T02:16:49.994Z,4.8
2022-09-30T02:18:49.982Z,4.8
2022-09-30T02:20:49.975Z,4.8
2022-09-30T02:22:50.938Z,4.8
2022-09-30T02:24:50.769Z,4.9
2022-09-30T02:26:50.162Z,4.9
2022-09-30T02:28:50.085Z,4.9
2022-09-30T02:30:50.074Z,4.9
2022-09-30T02:32:50.009Z,5.0
2022-09-30T02:34:50.606Z,5.0
2022-09-30T02:36:49.893Z,5.0
2022-09-30T02:38:50.833Z,5.0
2022-09-30T02:40:50.109Z,5.0
2022-09-30T02:42:50.005Z,5.1
2022-09-30T02:44:50.885Z,5.1
2022-09-30T02:46:50.606Z,5.1
2022-09-30T02:48:50.742Z,5.2
2022-09-30T02:50:50.609Z,5.2
2022-09-30T02:52:50.731Z,5.2
2022-09-30T02:54:50.619Z,5.3
2022-09-30T02:56:49.990Z,5.3
2022-09-30T02:58:50.871Z,5.3
2022-09-30T03:00:51.273Z,5.3
2022-09-30T03:02:50.307Z,5.3
2022-09-30T03:04:50.823Z,5.3
2022-09-30T03:06:50.125Z,5.3
2022-09-30T03:08:50.091Z,5.3
2022-09-30T03:10:50.031Z,5.3
2022-09-30T03:12:50.092Z,5.3
2022-09-30T03:14:50.085Z,5.3
2022-09-30T03:16:50.226Z,5.3
2022-09-30T03:18:50.152Z,5.3
2022-09-30T03:20:50.112Z,5.3
2022-09-30T03:22:49.990Z,5.4
2022-09-30T03:24:50.861Z,5.4
2022-09-30T03:26:50.870Z,5.5
2022-09-30T03:28:50.754Z,5.5
2022-09-30T03:30:50.561Z,5.5
2022-09-30T03:32:50.687Z,5.5
2022-09-30T03:34:50.100Z,5.5
2022-09-30T03:36:50.344Z,5.5
2022-09-30T03:38:50.138Z,5.5
2022-09-30T03:40:50.228Z,5.5
2022-09-30T03:42:50.167Z,5.6
2022-09-30T03:44:50.395Z,5.5
2022-09-30T03:46:51.176Z,5.5
2022-09-30T03:48:50.453Z,5.5
2022-09-30T03:50:50.509Z,5.5
2022-09-30T03:52:50.625Z,5.5
2022-09-30T03:54:50.640Z,5.4
2022-09-30T03:56:50.901Z,5.4
2022-09-30T03:58:50.819Z,5.4
2022-09-30T04:00:51.136Z,5.4
2022-09-30T04:02:58.042Z,5.3
2022-09-30T04:04:50.684Z,5.3
2022-09-30T04:06:50.892Z,5.3
2022-09-30T04:08:49.956Z,5.3
2022-09-30T04:10:50.009Z,5.3
2022-09-30T04:12:49.943Z,5.3
2022-09-30T04:14:50.886Z,5.3
2022-09-30T04:16:54.456Z,5.3
2022-09-30T04:18:50.640Z,5.3
2022-09-30T04:20:50.379Z,5.3
2022-09-30T04:22:50.393Z,5.3
2022-09-30T04:24:50.199Z,5.2
2022-09-30T04:26:50.487Z,5.2
2022-09-30T04:28:50.300Z,5.2
2022-09-30T04:30:50.177Z,5.2
2022-09-30T04:32:49.982Z,5.1
2022-09-30T04:34:50.404Z,5.1
2022-09-30T04:36:50.702Z,5.1
2022-09-30T04:38:50.814Z,5.1
2022-09-30T04:40:50.545Z,5.1
2022-09-30T04:42:50.531Z,5.1
2022-09-30T04:44:50.556Z,5.0
2022-09-30T04:46:50.794Z,5.0
2022-09-30T04:48:50.749Z,5.0
2022-09-30T04:50:50.712Z,5.1
2022-09-30T04:52:50.681Z,5.1
2022-09-30T04:54:50.562Z,5.1
2022-09-30T04:56:50.770Z,5.1
2022-09-30T04:58:50.685Z,5.1
2022-09-30T05:00:51.017Z,5.1
2022-09-30T05:02:50.157Z,5.1
2022-09-30T05:04:50.505Z,5.1
2022-09-30T05:06:50.840Z,5.1
2022-09-30T05:08:50.787Z,5.1
2022-09-30T05:10:50.044Z,5.2
2022-09-30T05:12:50.023Z,5.2
2022-09-30T05:14:49.982Z,5.2
2022-09-30T05:16:50.315Z,5.2
2022-09-30T05:18:50.254Z,5.2
2022-09-30T05:20:50.398Z,5.2
2022-09-30T05:22:50.141Z,5.2
2022-09-30T05:24:50.223Z,5.2
2022-09-30T05:26:50.741Z,5.1
2022-09-30T05:28:50.924Z,5.1
2022-09-30T05:30:50.909Z,5.1
2022-09-30T05:32:50.872Z,5.1
2022-09-30T05:34:50.425Z,5.1
2022-09-30T05:36:50.111Z,5.0
2022-09-30T05:38:49.977Z,5.0
2022-09-30T05:40:50.010Z,5.0
2022-09-30T05:42:50.895Z,5.0
2022-09-30T05:44:50.853Z,5.0
2022-09-30T05:46:50.166Z,5.0
2022-09-30T05:48:50.262Z,5.0
2022-09-30T05:50:50.122Z,5.0
2022-09-30T05:52:50.210Z,5.0
2022-09-30T05:54:50.256Z,5.0
2022-09-30T05:56:50.435Z,5.0
2022-09-30T05:58:50.193Z,5.0
2022-09-30T06:00:50.225Z,5.0
2022-09-30T06:02:51.212Z,5.0
2022-09-30T06:04:50.110Z,5.0
2022-09-30T06:06:50.274Z,5.0
2022-09-30T06:08:50.263Z,5.1
2022-09-30T06:10:50.112Z,5.1
2022-09-30T06:12:50.396Z,5.1
2022-09-30T06:14:50.254Z,5.1
2022-09-30T06:16:50.875Z,5.2
2022-09-30T06:18:50.013Z,5.2
2022-09-30T06:20:50.109Z,5.2
2022-09-30T06:22:50.151Z,5.3
2022-09-30T06:24:55.781Z,5.3
2022-09-30T06:26:50.249Z,5.4
2022-09-30T06:28:50.214Z,5.4
2022-09-30T06:30:50.320Z,5.4
2022-09-30T06:32:50.351Z,5.4
2022-09-30T06:34:50.134Z,5.4
2022-09-30T06:36:50.355Z,5.4
2022-09-30T06:38:50.481Z,5.5
2022-09-30T06:40:50.685Z,5.5
2022-09-30T06:42:50.711Z,5.6
2022-09-30T06:44:54.048Z,5.6
2022-09-30T06:46:54.706Z,5.6
2022-09-30T06:48:50.988Z,5.6
2022-09-30T06:51:02.727Z,5.7
2022-09-30T06:52:50.362Z,5.7
2022-09-30T06:54:50.392Z,5.7
2022-09-30T06:56:50.840Z,5.7
2022-09-30T06:58:50.725Z,5.7
2022-09-30T07:00:50.852Z,5.6
2022-09-30T07:02:50.252Z,5.7
2022-09-30T07:04:50.860Z,5.7
2022-09-30T07:06:49.975Z,5.7
2022-09-30T07:08:50.880Z,5.7
2022-09-30T07:10:50.714Z,5.6
2022-09-30T07:12:50.609Z,5.7
2022-09-30T07:14:50.702Z,5.6
2022-09-30T07:16:50.295Z,5.6
2022-09-30T07:18:50.350Z,5.6
2022-09-30T07:20:50.272Z,5.7
2022-09-30T07:22:50.300Z,5.6
2022-09-30T07:24:50.522Z,5.7
2022-09-30T07:26:50.789Z,5.7
2022-09-30T07:28:50.783Z,5.7
2022-09-30T07:30:50.810Z,5.8
2022-09-30T07:32:50.730Z,5.8
2022-09-30T07:34:50.244Z,5.8
2022-09-30T07:36:50.329Z,5.8
2022-09-30T07:38:50.298Z,5.9
2022-09-30T07:40:50.454Z,6.0
2022-09-30T07:42:50.615Z,6.0
2022-09-30T07:44:50.486Z,6.1
2022-09-30T07:46:50.809Z,6.1
2022-09-30T07:48:50.865Z,6.2
2022-09-30T07:50:50.759Z,6.3
2022-09-30T07:52:50.663Z,6.3
2022-09-30T07:54:51.301Z,6.3
2022-09-30T07:57:12.142Z,6.4
2022-09-30T07:58:50.434Z,6.5
2022-09-30T08:00:50.559Z,6.7
2022-09-30T08:02:50.608Z,6.7
2022-09-30T08:04:49.957Z,6.7
2022-09-30T08:06:50.601Z,6.7
2022-09-30T08:08:50.749Z,6.8
2022-09-30T08:10:50.722Z,6.8
2022-09-30T08:13:02.025Z,6.9
2022-09-30T08:14:50.215Z,6.9
2022-09-30T08:16:50.790Z,6.9
2022-09-30T08:18:50.922Z,6.9
2022-09-30T08:20:50.772Z,7.0
2022-09-30T08:22:50.679Z,7.0
2022-09-30T08:24:50.653Z,7.1
2022-09-30T08:26:50.230Z,7.1
2022-09-30T08:28:50.415Z,7.2
2022-09-30T08:30:50.500Z,7.3
2022-09-30T08:32:50.394Z,7.3
2022-09-30T08:34:50.898Z,7.3
2022-09-30T08:36:50.344Z,7.4
2022-09-30T08:38:50.370Z,7.6
2022-09-30T08:40:50.294Z,7.6
2022-09-30T08:42:58.227Z,7.8
2022-09-30T08:44:50.364Z,7.8
2022-09-30T08:46:58.879Z,7.9
2022-09-30T08:48:50.795Z,8.0
2022-09-30T08:50:49.982Z,8.1
2022-09-30T08:52:51.512Z,8.1
2022-09-30T08:54:50.617Z,8.1
2022-09-30T08:56:50.097Z,8.2
2022-09-30T08:58:50.113Z,8.2
2022-09-30T09:00:50.386Z,8.3
2022-09-30T09:02:50.883Z,8.3
2022-09-30T09:04:50.400Z,8.3
2022-09-30T09:06:50.671Z,8.4
2022-09-30T09:08:50.622Z,8.4
2022-09-30T09:10:50.850Z,8.4
2022-09-30T09:12:50.649Z,8.4
2022-09-30T09:14:50.599Z,8.5
2022-09-30T09:16:51.088Z,8.5
2022-09-30T09:18:49.934Z,8.6
2022-09-30T09:20:50.056Z,8.6
2022-09-30T09:22:49.957Z,8.6
2022-09-30T09:24:50.802Z,8.6
2022-09-30T09:26:50.319Z,8.7
2022-09-30T09:28:54.181Z,8.7
2022-09-30T09:30:50.088Z,8.7
2022-09-30T09:32:50.865Z,8.8
2022-09-30T09:34:50.273Z,8.9
2022-09-30T09:36:50.752Z,8.9
2022-09-30T09:38:50.822Z,9.0
2022-09-30T09:40:50.837Z,9.0
2022-09-30T09:42:50.536Z,9.1
2022-09-30T09:44:50.672Z,9.2
2022-09-30T09:46:50.296Z,9.3
2022-09-30T09:48:50.329Z,9.3
2022-09-30T09:50:50.441Z,9.3
2022-09-30T09:52:50.158Z,9.4
2022-09-30T09:54:50.343Z,9.5
2022-09-30T09:56:50.610Z,9.5
2022-09-30T10:00:50.988Z,9.6
2022-09-30T10:02:50.897Z,9.8
2022-09-30T10:04:50.196Z,9.8
2022-09-30T10:06:50.402Z,9.8
2022-09-30T10:08:50.161Z,10.0
2022-09-30T10:10:50.166Z,10.1
2022-09-30T10:12:49.912Z,10.2
2022-09-30T10:14:50.776Z,10.2
2022-09-30T10:16:50.016Z,10.2
2022-09-30T10:18:50.868Z,10.2
2022-09-30T10:20:50.378Z,10.2
2022-09-30T10:22:50.583Z,10.3
2022-09-30T10:24:50.537Z,10.3
2022-09-30T10:26:50.645Z,10.3
2022-09-30T10:28:50.708Z,10.3
2022-09-30T10:30:50.795Z,10.4
2022-09-30T10:32:50.912Z,10.5
2022-09-30T10:34:50.728Z,10.6
2022-09-30T10:36:50.181Z,10.6
2022-09-30T10:38:50.080Z,10.7
2022-09-30T10:40:50.103Z,10.8
2022-09-30T10:42:50.048Z,11.0
2022-09-30T10:44:50.901Z,11.0
2022-09-30T10:46:50.476Z,11.0
2022-09-30T10:48:50.729Z,11.2
2022-09-30T10:50:50.773Z,11.2
2022-09-30T10:52:50.810Z,11.4
2022-09-30T10:54:50.664Z,11.4
2022-09-30T10:56:51.642Z,11.4
2022-09-30T10:58:50.357Z,11.5
2022-09-30T11:00:50.660Z,11.6
2022-09-30T11:02:54.631Z,11.7
2022-09-30T11:04:50.437Z,11.8
2022-09-30T11:06:50.826Z,11.8
2022-09-30T11:08:50.667Z,11.9
2022-09-30T11:10:50.572Z,12.1
2022-09-30T11:12:50.432Z,12.1
2022-09-30T11:14:50.588Z,12.2
2022-09-30T11:16:51.255Z,12.3
2022-09-30T11:18:50.193Z,12.4
2022-09-30T11:20:49.992Z,12.5
2022-09-30T11:22:49.960Z,12.5
2022-09-30T11:24:50.827Z,12.6
2022-09-30T11:26:50.169Z,12.8
2022-09-30T11:28:50.045Z,12.8
2022-09-30T11:30:49.958Z,13.0
2022-09-30T11:32:50.004Z,13.0
2022-09-30T11:34:50.395Z,13.0
2022-09-30T11:36:50.566Z,13.1
2022-09-30T11:38:50.630Z,13.1
2022-09-30T11:40:50.489Z,13.2
2022-09-30T11:42:50.527Z,13.2
2022-09-30T11:44:50.511Z,13.3
2022-09-30T11:46:50.756Z,13.4
2022-09-30T11:48:50.889Z,13.4
2022-09-30T11:50:49.920Z,13.4
2022-09-30T11:52:50.798Z,13.4
2022-09-30T11:54:50.762Z,13.5
2022-09-30T11:56:49.969Z,13.6
2022-09-30T11:58:50.043Z,13.7
2022-09-30T12:00:50.106Z,13.7
2022-09-30T12:02:50.288Z,13.8
2022-09-30T12:04:50.689Z,13.8
2022-09-30T12:06:50.845Z,13.8
2022-09-30T12:08:49.995Z,13.9
2022-09-30T12:10:50.105Z,14.0
2022-09-30T12:12:50.061Z,14.0
2022-09-30T12:14:50.229Z,14.0
2022-09-30T12:16:51.454Z,14.1
2022-09-30T12:18:50.716Z,14.2
2022-09-30T12:20:50.615Z,14.2
2022-09-30T12:22:50.475Z,14.2
2022-09-30T12:24:50.474Z,14.2
2022-09-30T12:26:50.937Z,14.2
2022-09-30T12:28:50.007Z,14.2
2022-09-30T12:30:50.211Z,14.2
2022-09-30T12:32:50.243Z,14.2
2022-09-30T12:34:50.872Z,14.2
2022-09-30T12:36:50.940Z,14.2
2022-09-30T12:38:49.952Z,14.2
2022-09-30T12:40:53.413Z,14.2
2022-09-30T12:42:50.491Z,14.2
2022-09-30T12:44:50.434Z,14.2
2022-09-30T12:46:50.514Z,14.2
2022-09-30T12:48:50.425Z,14.2
2022-09-30T12:50:50.493Z,14.3
2022-09-30T12:52:50.336Z,14.3
2022-09-30T12:54:50.593Z,14.3
2022-09-30T12:56:50.860Z,14.3
2022-09-30T12:58:50.018Z,14.4
2022-09-30T13:00:50.284Z,14.4
2022-09-30T13:02:50.388Z,14.4
2022-09-30T13:04:50.727Z,14.5
2022-09-30T13:06:50.108Z,14.5
2022-09-30T13:08:50.047Z,14.6
2022-09-30T13:10:49.950Z,14.6
2022-09-30T13:12:50.866Z,14.7
2022-09-30T13:14:50.890Z,14.7
2022-09-30T13:16:50.239Z,14.7
2022-09-30T13:18:50.280Z,14.8
2022-09-30T13:20:50.279Z,14.8
2022-09-30T13:22:50.080Z,14.8
2022-09-30T13:24:50.002Z,14.9
2022-09-30T13:26:50.285Z,14.9
2022-09-30T13:28:50.316Z,14.8
2022-09-30T13:30:50.293Z,14.9
2022-09-30T13:32:50.428Z,14.9
2022-09-30T13:34:50.874Z,14.9
2022-09-30T13:36:50.179Z,14.9
2022-09-30T13:38:50.261Z,15.0
2022-09-30T13:41:04.284Z,15.0
2022-09-30T13:42:50.644Z,15.0
2022-09-30T13:44:57.905Z,15.0
2022-09-30T13:46:49.981Z,15.0
2022-09-30T13:48:50.030Z,15.0
2022-09-30T13:50:50.163Z,15.0
2022-09-30T13:52:50.301Z,15.0
2022-09-30T13:54:50.082Z,15.1
2022-09-30T13:56:50.254Z,15.1
2022-09-30T13:58:50.229Z,15.1
2022-09-30T14:00:50.463Z,15.2
2022-09-30T14:02:50.702Z,15.2
2022-09-30T14:04:50.539Z,15.2
2022-09-30T14:06:50.724Z,15.2
2022-09-30T14:08:50.729Z,15.2
2022-09-30T14:10:50.111Z,15.2
2022-09-30T14:12:50.879Z,15.2
2022-09-30T14:14:50.769Z,15.2
2022-09-30T14:16:50.111Z,15.2
2022-09-30T14:18:50.076Z,15.3
2022-09-30T14:20:50.045Z,15.3
2022-09-30T14:22:50.176Z,15.3
2022-09-30T14:24:50.065Z,15.3
2022-09-30T14:26:50.353Z,15.4
2022-09-30T14:28:50.703Z,15.4
2022-09-30T14:30:51.065Z,15.5
2022-09-30T14:32:50.942Z,15.5
2022-09-30T14:34:50.363Z,15.6
2022-09-30T14:36:50.682Z,15.6
2022-09-30T14:38:50.611Z,15.7
2022-09-30T14:40:50.681Z,15.7
2022-09-30T14:42:50.851Z,15.7
2022-09-30T14:44:50.833Z,15.7
2022-09-30T14:46:50.981Z,15.6
2022-09-30T14:48:51.025Z,15.6
2022-09-30T14:50:50.979Z,15.7
2022-09-30T14:52:50.064Z,15.7
2022-09-30T14:54:50.244Z,15.7
2022-09-30T14:56:50.719Z,15.7
2022-09-30T14:58:50.609Z,15.8
2022-09-30T15:00:50.832Z,15.8
2022-09-30T15:02:50.054Z,15.8
2022-09-30T15:04:51.217Z,15.8
2022-09-30T15:06:50.705Z,15.7
2022-09-30T15:08:50.861Z,15.6
2022-09-30T15:10:50.739Z,15.6
2022-09-30T15:12:50.091Z,15.6
2022-09-30T15:14:50.005Z,15.6
2022-09-30T15:16:50.106Z,15.5
2022-09-30T15:18:50.130Z,15.4
2022-09-30T15:20:50.267Z,15.4
2022-09-30T15:22:50.318Z,15.4
2022-09-30T15:24:50.347Z,15.4
2022-09-30T15:26:50.626Z,15.3
2022-09-30T15:28:50.742Z,15.3
2022-09-30T15:30:51.003Z,15.2
2022-09-30T15:32:52.370Z,15.2
2022-09-30T15:34:50.103Z,15.2
2022-09-30T15:36:50.438Z,15.1
2022-09-30T15:38:50.836Z,15.1
2022-09-30T15:40:50.841Z,15.1
2022-09-30T15:42:50.744Z,15.0
2022-09-30T15:44:50.686Z,15.0
2022-09-30T15:46:50.083Z,14.9
2022-09-30T15:48:50.116Z,14.9
2022-09-30T15:50:50.203Z,14.8
2022-09-30T15:52:50.264Z,14.8
2022-09-30T15:54:50.259Z,14.8
2022-09-30T15:56:50.696Z,14.8
2022-09-30T15:58:50.796Z,14.7
2022-09-30T16:00:51.087Z,14.6
2022-09-30T16:02:50.310Z,14.6
2022-09-30T16:04:50.996Z,14.5
2022-09-30T16:06:50.230Z,14.5
2022-09-30T16:08:50.130Z,14.4
2022-09-30T16:10:50.269Z,14.4
2022-09-30T16:12:50.645Z,14.3
2022-09-30T16:14:50.028Z,14.3
2022-09-30T16:16:50.965Z,14.2
2022-09-30T16:18:50.215Z,14.2
2022-09-30T16:20:50.266Z,14.1
2022-09-30T16:22:50.457Z,14.1
2022-09-30T16:24:50.634Z,14.0
2022-09-30T16:26:51.143Z,14.0
2022-09-30T16:28:50.258Z,13.9
2022-09-30T16:30:50.285Z,13.8
2022-09-30T16:32:50.167Z,13.8
2022-09-30T16:34:50.699Z,13.8
2022-09-30T16:36:50.227Z,13.6
2022-09-30T16:38:50.220Z,13.6
2022-09-30T16:40:50.458Z,13.4
2022-09-30T16:42:50.526Z,13.4
2022-09-30T16:44:50.674Z,13.3
2022-09-30T16:46:51.001Z,13.3
2022-09-30T16:48:50.994Z,13.2
2022-09-30T16:50:50.972Z,13.1
2022-09-30T16:52:50.837Z,13.0
2022-09-30T16:54:50.868Z,12.9
2022-09-30T16:56:50.013Z,12.9
2022-09-30T16:58:50.087Z,12.8
2022-09-30T17:00:50.403Z,12.7
2022-09-30T17:02:50.811Z,12.6
2022-09-30T17:04:50.380Z,12.5
2022-09-30T17:06:50.672Z,12.5
2022-09-30T17:08:50.750Z,12.4
2022-09-30T17:10:50.726Z,12.3
2022-09-30T17:12:50.941Z,12.3
2022-09-30T17:14:50.127Z,12.2
2022-09-30T17:16:50.564Z,12.1
2022-09-30T17:18:50.620Z,12.0
2022-09-30T17:20:50.870Z,11.8
2022-09-30T17:22:50.863Z,11.8
2022-09-30T17:24:50.957Z,11.7
2022-09-30T17:26:50.444Z,11.7
2022-09-30T17:28:50.565Z,11.6
2022-09-30T17:30:50.443Z,11.4
2022-09-30T17:32:50.510Z,11.4
2022-09-30T17:34:51.010Z,11.4
2022-09-30T17:36:50.080Z,11.3
2022-09-30T17:38:50.028Z,11.1
2022-09-30T17:40:50.224Z,11.0
2022-09-30T17:42:50.257Z,11.0
2022-09-30T17:44:50.440Z,10.9
2022-09-30T17:46:50.668Z,10.8
2022-09-30T17:48:50.728Z,10.6
2022-09-30T17:50:50.932Z,10.6
2022-09-30T17:52:50.952Z,10.6
2022-09-30T17:54:53.031Z,10.4
2022-09-30T17:56:50.462Z,10.2
2022-09-30T17:58:50.729Z,10.2
2022-09-30T18:00:50.399Z,10.2
2022-09-30T18:02:50.570Z,10.2
2022-09-30T18:04:50.997Z,10.1
2022-09-30T18:06:50.200Z,9.9
2022-09-30T18:08:50.164Z,9.8
2022-09-30T18:10:50.217Z,9.8
2022-09-30T18:12:50.194Z,9.8
2022-09-30T18:14:50.392Z,9.7
2022-09-30T18:16:51.292Z,9.6
2022-09-30T18:18:50.429Z,9.5
2022-09-30T18:20:50.606Z,9.5
2022-09-30T18:22:50.711Z,9.4
2022-09-30T18:24:50.635Z,9.3
2022-09-30T18:26:50.091Z,9.3
2022-09-30T18:28:50.215Z,9.3
2022-09-30T18:30:50.322Z,9.1
2022-09-30T18:32:50.369Z,9.1
2022-09-30T18:34:50.027Z,9.0
2022-09-30T18:36:50.391Z,8.9
2022-09-30T18:38:50.571Z,8.9
2022-09-30T18:40:50.671Z,8.9
2022-09-30T18:42:50.663Z,8.8
2022-09-30T18:44:50.973Z,8.7
2022-09-30T18:46:50.116Z,8.7
2022-09-30T18:48:50.279Z,8.7
2022-09-30T18:50:50.191Z,8.7
2022-09-30T18:52:50.484Z,8.5
2022-09-30T18:54:50.407Z,8.5
2022-09-30T18:56:50.662Z,8.5
2022-09-30T18:58:50.663Z,8.4
2022-09-30T19:00:50.984Z,8.4
2022-09-30T19:02:50.048Z,8.3
2022-09-30T19:04:50.959Z,8.2
2022-09-30T19:06:51.039Z,8.2
2022-09-30T19:08:50.443Z,8.1
2022-09-30T19:10:50.494Z,8.1
2022-09-30T19:12:50.642Z,8.0
2022-09-30T19:14:50.822Z,8.0
2022-09-30T19:16:50.462Z,8.0
2022-09-30T19:18:50.671Z,7.9
2022-09-30T19:20:50.760Z,7.9
2022-09-30T19:22:50.164Z,7.8
2022-09-30T19:24:50.288Z,7.8
2022-09-30T19:26:50.445Z,7.8
2022-09-30T19:28:50.629Z,7.7
2022-09-30T19:30:50.980Z,7.7
2022-09-30T19:32:51.008Z,7.6
2022-09-30T19:35:07.244Z,7.6
2022-09-30T19:36:52.408Z,7.6
2022-09-30T19:39:10.908Z,7.6
2022-09-30T19:40:50.528Z,7.5
2022-09-30T19:42:50.732Z,7.5
2022-09-30T19:44:50.581Z,7.4
2022-09-30T19:46:50.962Z,7.4
2022-09-30T19:48:50.319Z,7.4
2022-09-30T19:50:50.480Z,7.3
2022-09-30T19:52:58.102Z,7.3
2022-09-30T19:54:50.176Z,7.3
2022-09-30T19:56:50.727Z,7.3
2022-09-30T19:58:50.770Z,7.2
2022-09-30T20:00:51.147Z,7.1
2022-09-30T20:02:50.165Z,7.1
2022-09-30T20:04:50.849Z,7.1
2022-09-30T20:06:50.991Z,7.1
2022-09-30T20:08:50.089Z,7.1
2022-09-30T20:10:50.937Z,7.0
2022-09-30T20:12:50.128Z,7.0
2022-09-30T20:14:50.114Z,6.9
2022-09-30T20:16:50.565Z,6.9
2022-09-30T20:18:50.513Z,6.9
2022-09-30T20:20:50.721Z,6.9
2022-09-30T20:22:50.853Z,6.9
2022-09-30T20:24:50.838Z,6.8
2022-09-30T20:26:50.208Z,6.7
2022-09-30T20:28:50.371Z,6.7
2022-09-30T20:30:50.270Z,6.7
2022-09-30T20:32:50.613Z,6.7
2022-09-30T20:34:50.310Z,6.7
2022-09-30T20:36:50.475Z,6.7
2022-09-30T20:38:50.611Z,6.6
2022-09-30T20:40:50.674Z,6.6
2022-09-30T20:42:50.769Z,6.6
2022-09-30T20:44:50.616Z,6.5
2022-09-30T20:46:50.036Z,6.5
2022-09-30T20:48:51.010Z,6.5
2022-09-30T20:50:50.333Z,6.5
2022-09-30T20:52:50.366Z,6.4
2022-09-30T20:54:50.615Z,6.4
2022-09-30T20:57:08.398Z,6.4
2022-09-30T20:58:50.874Z,6.4
2022-09-30T21:00:50.220Z,6.4
2022-09-30T21:02:50.453Z,6.3
2022-09-30T21:04:53.098Z,6.3
2022-09-30T21:06:50.209Z,6.3
2022-09-30T21:08:50.190Z,6.3
2022-09-30T21:10:50.112Z,6.3
2022-09-30T21:12:50.056Z,6.3
2022-09-30T21:14:50.006Z,6.2
2022-09-30T21:16:50.526Z,6.2
2022-09-30T21:18:50.673Z,6.2
2022-09-30T21:20:50.725Z,6.2
2022-09-30T21:22:50.809Z,6.1
2022-09-30T21:24:50.704Z,6.1
2022-09-30T21:26:50.123Z,6.1
2022-09-30T21:28:50.136Z,6.1
2022-09-30T21:30:50.148Z,6.1
2022-09-30T21:32:50.107Z,6.0
2022-09-30T21:34:50.836Z,6.1
2022-09-30T21:36:50.093Z,6.0
2022-09-30T21:38:50.193Z,6.0
2022-09-30T21:40:50.347Z,6.0
2022-09-30T21:42:50.359Z,6.0
2022-09-30T21:44:50.552Z,6.0
2022-09-30T21:46:50.796Z,6.0
2022-09-30T21:48:50.893Z,6.0
2022-09-30T21:50:50.053Z,6.0
2022-09-30T21:52:50.215Z,5.9
2022-09-30T21:54:50.162Z,5.9
2022-09-30T21:56:50.442Z,5.9
2022-09-30T21:58:50.442Z,5.9
2022-09-30T22:00:50.872Z,5.9
2022-09-30T22:02:50.977Z,5.8
2022-09-30T22:04:50.825Z,5.8
2022-09-30T22:06:50.111Z,5.8
2022-09-30T22:08:50.102Z,5.8
2022-09-30T22:10:50.079Z,5.8
2022-09-30T22:12:50.079Z,5.8
2022-09-30T22:14:50.110Z,5.8
2022-09-30T22:16:50.619Z,5.7
2022-09-30T22:18:50.925Z,5.7
2022-09-30T22:20:50.079Z,5.7
2022-09-30T22:22:50.179Z,5.7
2022-09-30T22:24:50.320Z,5.7
2022-09-30T22:26:50.498Z,5.6
2022-09-30T22:28:50.694Z,5.6
2022-09-30T22:30:50.562Z,5.5
2022-09-30T22:32:50.531Z,5.4
2022-09-30T22:34:51.063Z,5.4
2022-09-30T22:36:50.397Z,5.4
2022-09-30T22:38:50.373Z,5.3
2022-09-30T22:40:50.385Z,5.3
2022-09-30T22:42:50.419Z,5.3
2022-09-30T22:44:50.570Z,5.3
2022-09-30T22:46:50.862Z,5.3
2022-09-30T22:48:50.878Z,5.3
2022-09-30T22:50:50.821Z,5.3
2022-09-30T22:52:50.710Z,5.3
2022-09-30T22:54:50.659Z,5.3
2022-09-30T22:56:50.134Z,5.3
2022-09-30T22:58:50.184Z,5.3
2022-09-30T23:00:50.201Z,5.3
2022-09-30T23:02:50.584Z,5.2
2022-09-30T23:04:50.973Z,5.2
2022-09-30T23:06:50.188Z,5.2
2022-09-30T23:08:50.158Z,5.2
2022-09-30T23:10:50.346Z,5.2
2022-09-30T23:12:50.462Z,5.1
2022-09-30T23:14:50.750Z,5.1
2022-09-30T23:16:50.465Z,5.1
2022-09-30T23:18:50.616Z,5.1
2022-09-30T23:20:50.811Z,5.1
2022-09-30T23:22:50.895Z,5.1
2022-09-30T23:24:49.994Z,5.1
2022-09-30T23:26:50.073Z,5.1
2022-09-30T23:28:50.317Z,5.1
2022-09-30T23:30:50.209Z,5.1
2022-09-30T23:32:50.253Z,5.1
2022-09-30T23:34:50.821Z,5.1
2022-09-30T23:36:50.341Z,5.1
2022-09-30T23:38:50.307Z,5.1
2022-09-30T23:40:50.475Z,5.1
2022-09-30T23:42:50.395Z,5.1
2022-09-30T23:44:50.586Z,5.1
2022-09-30T23:46:50.111Z,5.0
2022-09-30T23:48:50.187Z,5.0
2022-09-30T23:50:50.355Z,5.0
2022-09-30T23:52:50.322Z,5.0
2022-09-30T23:54:50.572Z,4.9
2022-09-30T23:56:50.751Z,4.9
2022-09-30T23:58:50.871Z,4.9
